sensor_id;sensor_type;location;lat;lon;timestamp;pressure;altitude;pressure_sealevel;temperature;humidity
86442;BME280;77105;48.940;12.050;2024-03-22T00:01:03;98075.56;;;6.21;89.26
86442;BME280;77105;48.940;12.050;2024-03-22T00:05:05;98066.19;;;6.17;89.32
86442;BME280;77105;48.940;12.050;2024-03-22T00:09:07;98062.34;;;6.11;89.46
86442;BME280;77105;48.940;12.050;2024-03-22T00:13:10;98069.47;;;6.04;89.49
86442;BME280;77105;48.940;12.050;2024-03-22T00:17:12;98076.00;;;5.87;89.53
86442;BME280;77105;48.940;12.050;2024-03-22T00:21:14;98075.72;;;5.74;89.58
86442;BME280;77105;48.940;12.050;2024-03-22T00:25:15;98064.00;;;5.67;89.50
86442;BME280;77105;48.940;12.050;2024-03-22T00:29:19;98054.91;;;5.68;89.86
86442;BME280;77105;48.940;12.050;2024-03-22T00:33:19;98058.38;;;5.54;89.66
86442;BME280;77105;48.940;12.050;2024-03-22T00:37:21;98067.47;;;5.45;89.88
86442;BME280;77105;48.940;12.050;2024-03-22T00:41:23;98046.00;;;5.45;90.42
86442;BME280;77105;48.940;12.050;2024-03-22T00:45:26;98044.66;;;5.49;90.46
86442;BME280;77105;48.940;12.050;2024-03-22T00:49:28;98049.53;;;5.45;90.29
86442;BME280;77105;48.940;12.050;2024-03-22T00:53:30;98056.44;;;5.40;90.57
86442;BME280;77105;48.940;12.050;2024-03-22T00:57:32;98041.03;;;5.34;90.44
86442;BME280;77105;48.940;12.050;2024-03-22T01:01:35;98039.72;;;5.30;90.62
86442;BME280;77105;48.940;12.050;2024-03-22T01:05:38;98042.09;;;5.25;90.72
86442;BME280;77105;48.940;12.050;2024-03-22T01:09:42;98045.53;;;5.11;91.15
86442;BME280;77105;48.940;12.050;2024-03-22T01:13:45;98034.78;;;5.11;91.07
86442;BME280;77105;48.940;12.050;2024-03-22T01:17:48;98036.09;;;5.15;91.48
86442;BME280;77105;48.940;12.050;2024-03-22T01:21:50;98032.41;;;5.16;91.20
86442;BME280;77105;48.940;12.050;2024-03-22T01:25:52;98037.47;;;5.11;91.38
86442;BME280;77105;48.940;12.050;2024-03-22T01:29:54;98034.94;;;5.09;91.83
86442;BME280;77105;48.940;12.050;2024-03-22T01:33:57;98027.72;;;5.10;91.73
86442;BME280;77105;48.940;12.050;2024-03-22T01:37:59;98021.53;;;5.09;91.37
86442;BME280;77105;48.940;12.050;2024-03-22T01:42:01;98022.38;;;5.10;91.79
86442;BME280;77105;48.940;12.050;2024-03-22T01:46:04;98016.34;;;5.07;91.43
86442;BME280;77105;48.940;12.050;2024-03-22T01:50:08;98011.97;;;5.06;91.84
86442;BME280;77105;48.940;12.050;2024-03-22T01:54:12;98018.19;;;5.07;91.96
86442;BME280;77105;48.940;12.050;2024-03-22T01:58:14;98006.81;;;5.05;91.88
86442;BME280;77105;48.940;12.050;2024-03-22T02:02:15;98001.59;;;5.03;92.04
86442;BME280;77105;48.940;12.050;2024-03-22T02:06:18;97995.25;;;4.96;92.08
86442;BME280;77105;48.940;12.050;2024-03-22T02:10:20;97993.63;;;4.95;92.03
86442;BME280;77105;48.940;12.050;2024-03-22T02:14:23;97983.03;;;4.94;92.14
86442;BME280;77105;48.940;12.050;2024-03-22T02:18:25;97977.88;;;4.92;92.31
86442;BME280;77105;48.940;12.050;2024-03-22T02:22:29;97972.84;;;4.89;92.36
86442;BME280;77105;48.940;12.050;2024-03-22T02:26:32;97969.50;;;4.87;92.60
86442;BME280;77105;48.940;12.050;2024-03-22T02:30:34;97972.34;;;4.86;92.38
86442;BME280;77105;48.940;12.050;2024-03-22T02:34:35;97965.47;;;4.83;92.22
86442;BME280;77105;48.940;12.050;2024-03-22T02:38:37;97960.13;;;4.83;92.39
86442;BME280;77105;48.940;12.050;2024-03-22T02:42:40;97959.66;;;4.80;91.88
86442;BME280;77105;48.940;12.050;2024-03-22T02:46:42;97957.16;;;4.70;92.18
86442;BME280;77105;48.940;12.050;2024-03-22T02:50:44;97957.06;;;4.56;92.06
86442;BME280;77105;48.940;12.050;2024-03-22T02:54:46;97957.94;;;4.48;92.19
86442;BME280;77105;48.940;12.050;2024-03-22T02:58:50;97964.28;;;4.47;92.62
86442;BME280;77105;48.940;12.050;2024-03-22T03:02:52;97959.78;;;4.39;92.01
86442;BME280;77105;48.940;12.050;2024-03-22T03:06:53;97960.19;;;4.28;92.54
86442;BME280;77105;48.940;12.050;2024-03-22T03:10:56;97964.03;;;4.18;92.63
86442;BME280;77105;48.940;12.050;2024-03-22T03:14:59;97954.34;;;4.09;92.59
86442;BME280;77105;48.940;12.050;2024-03-22T03:19:01;97953.00;;;4.13;92.63
86442;BME280;77105;48.940;12.050;2024-03-22T03:23:03;97937.28;;;4.10;92.35
86442;BME280;77105;48.940;12.050;2024-03-22T03:27:05;97938.78;;;4.12;92.77
86442;BME280;77105;48.940;12.050;2024-03-22T03:31:08;97926.56;;;4.10;92.65
86442;BME280;77105;48.940;12.050;2024-03-22T03:35:11;97924.06;;;4.08;92.21
86442;BME280;77105;48.940;12.050;2024-03-22T03:39:11;97923.75;;;3.95;93.00
86442;BME280;77105;48.940;12.050;2024-03-22T03:43:14;97940.16;;;3.92;92.65
86442;BME280;77105;48.940;12.050;2024-03-22T03:47:17;97938.97;;;3.87;92.33
86442;BME280;77105;48.940;12.050;2024-03-22T03:51:19;97943.84;;;3.75;92.88
86442;BME280;77105;48.940;12.050;2024-03-22T03:55:21;97947.72;;;3.64;92.51
86442;BME280;77105;48.940;12.050;2024-03-22T03:59:23;97936.66;;;3.51;92.29
86442;BME280;77105;48.940;12.050;2024-03-22T04:03:26;97928.31;;;3.46;92.57
86442;BME280;77105;48.940;12.050;2024-03-22T04:07:28;97928.97;;;3.40;93.15
86442;BME280;77105;48.940;12.050;2024-03-22T04:11:30;97929.63;;;3.34;93.19
86442;BME280;77105;48.940;12.050;2024-03-22T04:15:34;97921.59;;;3.34;93.04
86442;BME280;77105;48.940;12.050;2024-03-22T04:19:37;97913.56;;;3.34;92.74
86442;BME280;77105;48.940;12.050;2024-03-22T04:23:39;97914.91;;;3.38;93.23
86442;BME280;77105;48.940;12.050;2024-03-22T04:27:41;97912.59;;;3.43;93.36
86442;BME280;77105;48.940;12.050;2024-03-22T04:31:42;97912.41;;;3.45;93.76
86442;BME280;77105;48.940;12.050;2024-03-22T04:35:46;97911.41;;;3.46;93.10
86442;BME280;77105;48.940;12.050;2024-03-22T04:39:48;97922.78;;;3.48;93.19
86442;BME280;77105;48.940;12.050;2024-03-22T04:43:50;97920.28;;;3.46;93.05
86442;BME280;77105;48.940;12.050;2024-03-22T04:47:52;97915.59;;;3.48;93.29
86442;BME280;77105;48.940;12.050;2024-03-22T04:51:55;97923.09;;;3.53;94.11
86442;BME280;77105;48.940;12.050;2024-03-22T04:55:57;97921.28;;;3.53;93.30
86442;BME280;77105;48.940;12.050;2024-03-22T04:59:59;97924.78;;;3.54;94.02
86442;BME280;77105;48.940;12.050;2024-03-22T05:04:00;97923.94;;;3.53;93.99
86442;BME280;77105;48.940;12.050;2024-03-22T05:08:04;97913.91;;;3.55;94.00
86442;BME280;77105;48.940;12.050;2024-03-22T05:12:07;97915.59;;;3.56;93.61
86442;BME280;77105;48.940;12.050;2024-03-22T05:16:08;97910.91;;;3.58;93.89
86442;BME280;77105;48.940;12.050;2024-03-22T05:20:12;97904.72;;;3.58;93.92
86442;BME280;77105;48.940;12.050;2024-03-22T05:24:15;97909.06;;;3.59;93.66
86442;BME280;77105;48.940;12.050;2024-03-22T05:28:16;97903.72;;;3.59;94.23
86442;BME280;77105;48.940;12.050;2024-03-22T05:32:18;97901.03;;;3.59;93.78
86442;BME280;77105;48.940;12.050;2024-03-22T05:36:20;97900.53;;;3.55;94.60
86442;BME280;77105;48.940;12.050;2024-03-22T05:40:23;97894.84;;;3.50;94.19
86442;BME280;77105;48.940;12.050;2024-03-22T05:44:25;97890.16;;;3.44;94.49
86442;BME280;77105;48.940;12.050;2024-03-22T05:48:27;97890.34;;;3.43;94.15
86442;BME280;77105;48.940;12.050;2024-03-22T05:52:29;97889.84;;;3.31;94.07
86442;BME280;77105;48.940;12.050;2024-03-22T05:56:32;97898.34;;;3.27;94.32
86442;BME280;77105;48.940;12.050;2024-03-22T06:00:34;97907.22;;;3.27;94.56
86442;BME280;77105;48.940;12.050;2024-03-22T06:04:36;97903.56;;;3.28;93.94
86442;BME280;77105;48.940;12.050;2024-03-22T06:08:38;97902.72;;;3.28;94.32
86442;BME280;77105;48.940;12.050;2024-03-22T06:12:43;97901.72;;;3.29;93.71
86442;BME280;77105;48.940;12.050;2024-03-22T06:16:47;97894.88;;;3.26;94.36
86442;BME280;77105;48.940;12.050;2024-03-22T06:20:49;97893.19;;;3.25;94.21
86442;BME280;77105;48.940;12.050;2024-03-22T06:24:51;97908.06;;;3.28;93.50
86442;BME280;77105;48.940;12.050;2024-03-22T06:28:54;97901.72;;;3.29;93.90
86442;BME280;77105;48.940;12.050;2024-03-22T06:32:56;97905.53;;;3.34;93.36
86442;BME280;77105;48.940;12.050;2024-03-22T06:36:58;97896.00;;;3.40;93.67
86442;BME280;77105;48.940;12.050;2024-03-22T06:41:00;97895.03;;;3.41;93.15
86442;BME280;77105;48.940;12.050;2024-03-22T06:45:04;97889.34;;;3.44;93.02
86442;BME280;77105;48.940;12.050;2024-03-22T06:49:06;97894.34;;;3.47;93.84
86442;BME280;77105;48.940;12.050;2024-03-22T06:53:08;97885.13;;;3.49;93.18
86442;BME280;77105;48.940;12.050;2024-03-22T06:57:11;97883.63;;;3.55;93.56
86442;BME280;77105;48.940;12.050;2024-03-22T07:01:14;97879.78;;;3.65;93.14
86442;BME280;77105;48.940;12.050;2024-03-22T07:05:17;97874.41;;;3.82;92.80
86442;BME280;77105;48.940;12.050;2024-03-22T07:09:19;97872.81;;;4.03;93.17
86442;BME280;77105;48.940;12.050;2024-03-22T07:13:21;97867.25;;;4.21;93.33
86442;BME280;77105;48.940;12.050;2024-03-22T07:17:24;97869.22;;;4.27;92.90
86442;BME280;77105;48.940;12.050;2024-03-22T07:21:26;97878.06;;;4.35;93.35
86442;BME280;77105;48.940;12.050;2024-03-22T07:25:28;97873.34;;;4.46;93.41
86442;BME280;77105;48.940;12.050;2024-03-22T07:29:30;97864.72;;;4.58;93.05
86442;BME280;77105;48.940;12.050;2024-03-22T07:33:33;97858.63;;;4.72;93.15
86442;BME280;77105;48.940;12.050;2024-03-22T07:37:35;97861.88;;;4.90;93.10
86442;BME280;77105;48.940;12.050;2024-03-22T07:41:38;97857.72;;;5.11;92.94
86442;BME280;77105;48.940;12.050;2024-03-22T07:45:38;97857.22;;;5.30;93.24
86442;BME280;77105;48.940;12.050;2024-03-22T07:49:42;97855.75;;;5.42;92.96
86442;BME280;77105;48.940;12.050;2024-03-22T07:53:44;97858.00;;;5.53;92.83
86442;BME280;77105;48.940;12.050;2024-03-22T07:57:46;97857.09;;;5.60;92.70
86442;BME280;77105;48.940;12.050;2024-03-22T08:01:47;97857.69;;;5.70;92.81
86442;BME280;77105;48.940;12.050;2024-03-22T08:05:50;97847.34;;;5.82;92.86
86442;BME280;77105;48.940;12.050;2024-03-22T08:09:52;97859.81;;;5.98;92.80
86442;BME280;77105;48.940;12.050;2024-03-22T08:13:56;97848.19;;;6.12;92.69
86442;BME280;77105;48.940;12.050;2024-03-22T08:18:02;97836.78;;;6.24;92.46
86442;BME280;77105;48.940;12.050;2024-03-22T08:22:06;97835.06;;;6.32;92.49
86442;BME280;77105;48.940;12.050;2024-03-22T08:26:08;97835.38;;;6.43;92.15
86442;BME280;77105;48.940;12.050;2024-03-22T08:30:10;97833.50;;;6.58;92.08
86442;BME280;77105;48.940;12.050;2024-03-22T08:34:12;97821.44;;;6.69;92.12
86442;BME280;77105;48.940;12.050;2024-03-22T08:38:16;97819.72;;;6.82;92.00
86442;BME280;77105;48.940;12.050;2024-03-22T08:42:18;97822.69;;;6.87;91.44
86442;BME280;77105;48.940;12.050;2024-03-22T08:46:20;97817.81;;;6.98;91.30
86442;BME280;77105;48.940;12.050;2024-03-22T08:50:23;97810.03;;;7.09;91.24
86442;BME280;77105;48.940;12.050;2024-03-22T08:54:26;97818.50;;;7.27;90.32
86442;BME280;77105;48.940;12.050;2024-03-22T08:58:28;97819.94;;;7.51;90.32
86442;BME280;77105;48.940;12.050;2024-03-22T09:02:29;97809.75;;;7.68;90.00
86442;BME280;77105;48.940;12.050;2024-03-22T09:06:31;97799.69;;;7.83;89.96
86442;BME280;77105;48.940;12.050;2024-03-22T09:10:34;97801.63;;;7.95;90.06
86442;BME280;77105;48.940;12.050;2024-03-22T09:14:36;97790.47;;;8.05;89.01
86442;BME280;77105;48.940;12.050;2024-03-22T09:18:38;97789.94;;;8.16;89.04
86442;BME280;77105;48.940;12.050;2024-03-22T09:22:40;97794.19;;;8.38;89.26
86442;BME280;77105;48.940;12.050;2024-03-22T09:26:43;97780.81;;;8.64;88.67
86442;BME280;77105;48.940;12.050;2024-03-22T09:30:45;97782.94;;;8.89;88.12
86442;BME280;77105;48.940;12.050;2024-03-22T09:34:48;97782.59;;;9.11;87.95
86442;BME280;77105;48.940;12.050;2024-03-22T09:38:50;97767.19;;;9.25;87.01
86442;BME280;77105;48.940;12.050;2024-03-22T09:42:58;97766.59;;;9.36;86.57
86442;BME280;77105;48.940;12.050;2024-03-22T09:47:03;97759.50;;;9.61;85.15
86442;BME280;77105;48.940;12.050;2024-03-22T09:51:05;97755.50;;;9.90;85.04
86442;BME280;77105;48.940;12.050;2024-03-22T09:55:08;97750.06;;;10.03;84.08
86442;BME280;77105;48.940;12.050;2024-03-22T09:59:11;97748.41;;;10.22;83.28
86442;BME280;77105;48.940;12.050;2024-03-22T10:03:14;97745.78;;;10.46;82.06
86442;BME280;77105;48.940;12.050;2024-03-22T10:07:17;97745.66;;;10.73;81.20
86442;BME280;77105;48.940;12.050;2024-03-22T10:11:19;97746.13;;;10.94;80.70
86442;BME280;77105;48.940;12.050;2024-03-22T10:15:23;97745.78;;;11.15;80.17
86442;BME280;77105;48.940;12.050;2024-03-22T10:19:26;97734.44;;;11.25;79.18
86442;BME280;77105;48.940;12.050;2024-03-22T10:23:29;97725.84;;;11.35;78.55
86442;BME280;77105;48.940;12.050;2024-03-22T10:27:31;97729.72;;;11.45;78.50
86442;BME280;77105;48.940;12.050;2024-03-22T10:31:35;97720.78;;;11.63;77.35
86442;BME280;77105;48.940;12.050;2024-03-22T10:35:37;97702.75;;;11.75;76.85
86442;BME280;77105;48.940;12.050;2024-03-22T10:39:42;97715.59;;;11.86;76.39
86442;BME280;77105;48.940;12.050;2024-03-22T10:43:44;97709.16;;;11.80;75.53
86442;BME280;77105;48.940;12.050;2024-03-22T10:47:47;97699.16;;;11.81;76.01
86442;BME280;77105;48.940;12.050;2024-03-22T10:51:54;97691.47;;;11.78;76.77
86442;BME280;77105;48.940;12.050;2024-03-22T10:55:58;97686.19;;;11.83;76.30
86442;BME280;77105;48.940;12.050;2024-03-22T11:00:03;97678.25;;;11.81;76.37
86442;BME280;77105;48.940;12.050;2024-03-22T11:04:11;97674.81;;;11.74;76.88
86442;BME280;77105;48.940;12.050;2024-03-22T11:08:23;97656.34;;;11.83;76.44
86442;BME280;77105;48.940;12.050;2024-03-22T11:12:25;97643.69;;;11.95;76.76
86442;BME280;77105;48.940;12.050;2024-03-22T11:16:27;97640.22;;;12.06;76.76
86442;BME280;77105;48.940;12.050;2024-03-22T11:20:30;97634.78;;;12.24;76.95
86442;BME280;77105;48.940;12.050;2024-03-22T11:24:32;97625.63;;;12.37;75.52
86442;BME280;77105;48.940;12.050;2024-03-22T11:28:34;97622.19;;;12.41;75.75
86442;BME280;77105;48.940;12.050;2024-03-22T11:32:36;97613.00;;;12.42;75.64
86442;BME280;77105;48.940;12.050;2024-03-22T11:36:44;97605.81;;;12.48;75.47
86442;BME280;77105;48.940;12.050;2024-03-22T11:40:46;97602.22;;;12.66;75.45
86442;BME280;77105;48.940;12.050;2024-03-22T11:44:49;97594.06;;;12.77;75.03
86442;BME280;77105;48.940;12.050;2024-03-22T11:48:51;97597.41;;;12.91;73.79
86442;BME280;77105;48.940;12.050;2024-03-22T11:52:55;97585.91;;;13.07;73.41
86442;BME280;77105;48.940;12.050;2024-03-22T11:56:57;97570.16;;;13.21;72.27
86442;BME280;77105;48.940;12.050;2024-03-22T12:00:59;97567.09;;;13.40;71.43
86442;BME280;77105;48.940;12.050;2024-03-22T12:05:02;97563.25;;;13.64;69.34
86442;BME280;77105;48.940;12.050;2024-03-22T12:09:05;97551.16;;;13.84;66.29
86442;BME280;77105;48.940;12.050;2024-03-22T12:13:07;97547.06;;;13.98;63.01
86442;BME280;77105;48.940;12.050;2024-03-22T12:17:09;97541.44;;;14.16;61.32
86442;BME280;77105;48.940;12.050;2024-03-22T12:21:11;97536.06;;;14.32;60.65
86442;BME280;77105;48.940;12.050;2024-03-22T12:25:14;97522.81;;;14.53;59.78
86442;BME280;77105;48.940;12.050;2024-03-22T12:29:16;97521.97;;;14.52;58.58
86442;BME280;77105;48.940;12.050;2024-03-22T12:33:18;97498.28;;;14.53;58.58
86442;BME280;77105;48.940;12.050;2024-03-22T12:37:20;97490.09;;;14.69;58.02
86442;BME280;77105;48.940;12.050;2024-03-22T12:41:24;97487.53;;;14.79;56.96
86442;BME280;77105;48.940;12.050;2024-03-22T12:45:26;97487.59;;;14.84;55.29
86442;BME280;77105;48.940;12.050;2024-03-22T12:49:28;97470.47;;;15.05;54.22
86442;BME280;77105;48.940;12.050;2024-03-22T12:53:30;97468.47;;;15.18;54.08
86442;BME280;77105;48.940;12.050;2024-03-22T12:57:33;97461.94;;;15.19;53.01
86442;BME280;77105;48.940;12.050;2024-03-22T13:01:35;97447.94;;;15.32;52.70
86442;BME280;77105;48.940;12.050;2024-03-22T13:05:38;97456.31;;;15.25;52.04
86442;BME280;77105;48.940;12.050;2024-03-22T13:09:40;97435.13;;;15.32;51.85
86442;BME280;77105;48.940;12.050;2024-03-22T13:13:43;97425.44;;;15.20;51.93
86442;BME280;77105;48.940;12.050;2024-03-22T13:17:47;97415.00;;;15.38;52.63
86442;BME280;77105;48.940;12.050;2024-03-22T13:21:49;97407.22;;;15.69;50.96
86442;BME280;77105;48.940;12.050;2024-03-22T13:25:51;97405.66;;;15.51;50.55
86442;BME280;77105;48.940;12.050;2024-03-22T13:29:54;97404.84;;;15.77;50.31
86442;BME280;77105;48.940;12.050;2024-03-22T13:33:56;97404.06;;;16.08;49.73
86442;BME280;77105;48.940;12.050;2024-03-22T13:37:58;97382.53;;;16.49;49.04
86442;BME280;77105;48.940;12.050;2024-03-22T13:42:01;97374.25;;;16.39;48.12
86442;BME280;77105;48.940;12.050;2024-03-22T13:46:04;97366.50;;;16.25;48.27
86442;BME280;77105;48.940;12.050;2024-03-22T13:50:06;97362.66;;;16.21;49.14
86442;BME280;77105;48.940;12.050;2024-03-22T13:54:09;97358.09;;;16.32;49.66
86442;BME280;77105;48.940;12.050;2024-03-22T13:58:11;97351.31;;;16.40;48.41
86442;BME280;77105;48.940;12.050;2024-03-22T14:02:14;97343.03;;;16.24;48.59
86442;BME280;77105;48.940;12.050;2024-03-22T14:06:16;97333.22;;;16.34;48.55
86442;BME280;77105;48.940;12.050;2024-03-22T14:10:18;97334.44;;;16.48;48.50
86442;BME280;77105;48.940;12.050;2024-03-22T14:14:20;97321.72;;;16.26;48.52
86442;BME280;77105;48.940;12.050;2024-03-22T14:18:23;97326.38;;;16.63;48.87
86442;BME280;77105;48.940;12.050;2024-03-22T14:22:24;97316.16;;;17.00;47.21
86442;BME280;77105;48.940;12.050;2024-03-22T14:26:26;97306.50;;;16.82;47.29
86442;BME280;77105;48.940;12.050;2024-03-22T14:30:28;97307.34;;;16.88;47.41
86442;BME280;77105;48.940;12.050;2024-03-22T14:34:31;97305.22;;;16.48;47.29
86442;BME280;77105;48.940;12.050;2024-03-22T14:38:32;97299.47;;;16.50;47.14
86442;BME280;77105;48.940;12.050;2024-03-22T14:42:34;97284.59;;;16.77;47.65
86442;BME280;77105;48.940;12.050;2024-03-22T14:46:36;97278.41;;;16.92;47.17
86442;BME280;77105;48.940;12.050;2024-03-22T14:50:39;97273.47;;;16.94;47.46
86442;BME280;77105;48.940;12.050;2024-03-22T14:54:41;97262.78;;;16.87;47.10
86442;BME280;77105;48.940;12.050;2024-03-22T14:58:42;97263.91;;;16.92;47.35
86442;BME280;77105;48.940;12.050;2024-03-22T15:02:44;97260.88;;;16.93;47.24
86442;BME280;77105;48.940;12.050;2024-03-22T15:06:49;97245.88;;;17.06;46.54
86442;BME280;77105;48.940;12.050;2024-03-22T15:10:52;97233.88;;;17.17;45.69
86442;BME280;77105;48.940;12.050;2024-03-22T15:14:54;97235.81;;;17.21;44.83
86442;BME280;77105;48.940;12.050;2024-03-22T15:18:56;97229.25;;;17.27;44.85
86442;BME280;77105;48.940;12.050;2024-03-22T15:22:59;97219.16;;;17.28;45.39
86442;BME280;77105;48.940;12.050;2024-03-22T15:27:01;97216.97;;;17.50;45.14
86442;BME280;77105;48.940;12.050;2024-03-22T15:31:03;97209.03;;;17.48;45.81
86442;BME280;77105;48.940;12.050;2024-03-22T15:35:05;97203.00;;;17.36;45.50
86442;BME280;77105;48.940;12.050;2024-03-22T15:39:09;97198.84;;;17.09;46.11
86442;BME280;77105;48.940;12.050;2024-03-22T15:43:11;97201.59;;;17.14;46.00
86442;BME280;77105;48.940;12.050;2024-03-22T15:47:13;97193.91;;;17.06;46.02
86442;BME280;77105;48.940;12.050;2024-03-22T15:51:15;97194.75;;;17.01;46.76
86442;BME280;77105;48.940;12.050;2024-03-22T15:55:18;97184.34;;;17.03;46.72
86442;BME280;77105;48.940;12.050;2024-03-22T15:59:19;97182.72;;;17.12;46.47
86442;BME280;77105;48.940;12.050;2024-03-22T16:03:21;97171.84;;;17.52;46.55
86442;BME280;77105;48.940;12.050;2024-03-22T16:07:23;97164.69;;;17.87;45.80
86442;BME280;77105;48.940;12.050;2024-03-22T16:11:27;97164.88;;;18.15;45.30
86442;BME280;77105;48.940;12.050;2024-03-22T16:15:29;97164.13;;;17.95;45.04
86442;BME280;77105;48.940;12.050;2024-03-22T16:19:31;97158.13;;;17.83;44.86
86442;BME280;77105;48.940;12.050;2024-03-22T16:23:33;97157.00;;;17.89;44.86
86442;BME280;77105;48.940;12.050;2024-03-22T16:27:36;97158.13;;;17.47;45.47
86442;BME280;77105;48.940;12.050;2024-03-22T16:31:38;97155.38;;;17.22;46.19
86442;BME280;77105;48.940;12.050;2024-03-22T16:35:41;97151.00;;;17.16;46.39
86442;BME280;77105;48.940;12.050;2024-03-22T16:39:42;97154.25;;;16.98;46.99
86442;BME280;77105;48.940;12.050;2024-03-22T16:43:45;97147.41;;;16.90;46.92
86442;BME280;77105;48.940;12.050;2024-03-22T16:47:50;97150.66;;;16.77;47.49
86442;BME280;77105;48.940;12.050;2024-03-22T16:51:52;97150.31;;;16.54;48.02
86442;BME280;77105;48.940;12.050;2024-03-22T16:55:54;97145.34;;;16.46;48.25
86442;BME280;77105;48.940;12.050;2024-03-22T16:59:57;97150.00;;;16.45;48.84
86442;BME280;77105;48.940;12.050;2024-03-22T17:03:59;97140.41;;;16.43;49.04
86442;BME280;77105;48.940;12.050;2024-03-22T17:08:01;97136.56;;;16.39;49.27
86442;BME280;77105;48.940;12.050;2024-03-22T17:12:03;97131.09;;;16.34;49.17
86442;BME280;77105;48.940;12.050;2024-03-22T17:16:07;97126.19;;;16.31;50.03
86442;BME280;77105;48.940;12.050;2024-03-22T17:20:10;97122.31;;;16.26;49.77
86442;BME280;77105;48.940;12.050;2024-03-22T17:24:14;97114.13;;;16.21;50.00
86442;BME280;77105;48.940;12.050;2024-03-22T17:28:16;97119.56;;;16.16;50.08
86442;BME280;77105;48.940;12.050;2024-03-22T17:32:19;97121.16;;;16.07;50.92
86442;BME280;77105;48.940;12.050;2024-03-22T17:36:21;97109.59;;;15.90;51.93
86442;BME280;77105;48.940;12.050;2024-03-22T17:40:23;97108.41;;;15.71;53.27
86442;BME280;77105;48.940;12.050;2024-03-22T17:44:25;97107.09;;;15.42;54.87
86442;BME280;77105;48.940;12.050;2024-03-22T17:48:28;97108.88;;;15.26;55.34
86442;BME280;77105;48.940;12.050;2024-03-22T17:52:30;97106.91;;;15.17;55.39
86442;BME280;77105;48.940;12.050;2024-03-22T17:56:32;97113.16;;;15.12;55.63
86442;BME280;77105;48.940;12.050;2024-03-22T18:00:34;97106.00;;;15.06;56.28
86442;BME280;77105;48.940;12.050;2024-03-22T18:04:37;97110.81;;;14.94;56.82
86442;BME280;77105;48.940;12.050;2024-03-22T18:08:39;97114.75;;;14.76;58.02
86442;BME280;77105;48.940;12.050;2024-03-22T18:12:41;97109.31;;;14.55;58.92
86442;BME280;77105;48.940;12.050;2024-03-22T18:16:43;97097.31;;;14.29;60.11
86442;BME280;77105;48.940;12.050;2024-03-22T18:20:46;97099.22;;;14.07;61.53
86442;BME280;77105;48.940;12.050;2024-03-22T18:24:49;97093.53;;;13.87;62.43
86442;BME280;77105;48.940;12.050;2024-03-22T18:28:51;97092.75;;;13.69;64.20
86442;BME280;77105;48.940;12.050;2024-03-22T18:32:53;97088.50;;;13.57;65.45
86442;BME280;77105;48.940;12.050;2024-03-22T18:36:56;97087.78;;;13.45;66.56
86442;BME280;77105;48.940;12.050;2024-03-22T18:40:58;97086.75;;;13.29;67.66
86442;BME280;77105;48.940;12.050;2024-03-22T18:45:00;97080.66;;;13.22;67.79
86442;BME280;77105;48.940;12.050;2024-03-22T18:49:03;97075.16;;;13.17;68.35
86442;BME280;77105;48.940;12.050;2024-03-22T18:53:06;97075.56;;;13.09;69.56
86442;BME280;77105;48.940;12.050;2024-03-22T18:57:08;97077.84;;;13.00;69.88
86442;BME280;77105;48.940;12.050;2024-03-22T19:01:10;97072.59;;;12.94;70.32
86442;BME280;77105;48.940;12.050;2024-03-22T19:05:11;97068.13;;;12.88;70.67
86442;BME280;77105;48.940;12.050;2024-03-22T19:09:15;97056.34;;;12.82;71.30
86442;BME280;77105;48.940;12.050;2024-03-22T19:13:16;97055.78;;;12.80;70.69
86442;BME280;77105;48.940;12.050;2024-03-22T19:17:18;97052.16;;;12.75;71.51
86442;BME280;77105;48.940;12.050;2024-03-22T19:21:19;97050.19;;;12.70;71.52
86442;BME280;77105;48.940;12.050;2024-03-22T19:25:23;97044.41;;;12.67;71.44
86442;BME280;77105;48.940;12.050;2024-03-22T19:29:25;97045.16;;;12.62;71.59
86442;BME280;77105;48.940;12.050;2024-03-22T19:33:27;97031.50;;;12.57;72.00
86442;BME280;77105;48.940;12.050;2024-03-22T19:37:29;97030.09;;;12.54;71.65
86442;BME280;77105;48.940;12.050;2024-03-22T19:41:32;97020.56;;;12.52;71.85
86442;BME280;77105;48.940;12.050;2024-03-22T19:45:34;97023.53;;;12.50;72.27
86442;BME280;77105;48.940;12.050;2024-03-22T19:49:35;97023.59;;;12.39;71.32
86442;BME280;77105;48.940;12.050;2024-03-22T19:53:37;97012.91;;;12.32;73.09
86442;BME280;77105;48.940;12.050;2024-03-22T19:57:40;97008.44;;;12.26;72.91
86442;BME280;77105;48.940;12.050;2024-03-22T20:01:42;97011.16;;;12.26;72.53
86442;BME280;77105;48.940;12.050;2024-03-22T20:05:45;97004.06;;;12.25;72.44
86442;BME280;77105;48.940;12.050;2024-03-22T20:09:47;97010.09;;;12.27;73.28
86442;BME280;77105;48.940;12.050;2024-03-22T20:13:50;97005.72;;;12.26;72.41
86442;BME280;77105;48.940;12.050;2024-03-22T20:17:52;97001.34;;;12.25;73.55
86442;BME280;77105;48.940;12.050;2024-03-22T20:21:54;96995.94;;;12.25;73.05
86442;BME280;77105;48.940;12.050;2024-03-22T20:25:56;96997.84;;;12.25;73.21
86442;BME280;77105;48.940;12.050;2024-03-22T20:29:59;97000.22;;;12.21;73.29
86442;BME280;77105;48.940;12.050;2024-03-22T20:34:01;97009.66;;;12.19;73.16
